createdAt,value
2022-10-18T00:01:30.439Z,24.63
2022-10-18T00:04:00.560Z,26.92
2022-10-18T00:06:30.937Z,26.67
2022-10-18T00:09:01.145Z,26.77
2022-10-18T00:11:31.336Z,27.30
2022-10-18T00:14:01.860Z,26.50
2022-10-18T00:16:32.050Z,24.40
2022-10-18T00:19:02.167Z,25.70
2022-10-18T00:21:32.573Z,23.98
2022-10-18T00:24:03.106Z,25.75
2022-10-18T00:26:33.335Z,26.80
2022-10-18T00:29:06.161Z,28.33
2022-10-18T00:31:38.587Z,31.23
2022-10-18T00:34:13.205Z,29.42
2022-10-18T00:36:44.291Z,28.83
2022-10-18T00:39:22.141Z,26.55
2022-10-18T00:41:52.667Z,27.60
2022-10-18T00:44:25.585Z,24.27
2022-10-18T00:47:08.773Z,22.10
2022-10-18T00:49:52.789Z,23.50
2022-10-18T00:52:29.130Z,23.00
2022-10-18T00:54:59.973Z,20.60
2022-10-18T00:57:30.251Z,23.23
2022-10-18T01:00:00.466Z,23.77
2022-10-18T01:02:32.644Z,28.00
2022-10-18T01:05:03.234Z,43.05
2022-10-18T01:07:42.473Z,37.45
2022-10-18T01:10:25.828Z,30.55
2022-10-18T01:13:25.683Z,28.23
2022-10-18T01:16:10.433Z,25.88
2022-10-18T01:18:49.285Z,24.67
2022-10-18T01:21:45.172Z,27.00
2022-10-18T01:24:45.359Z,27.45
2022-10-18T01:27:30.509Z,22.10
2022-10-18T01:30:19.181Z,21.37
2022-10-18T01:32:53.826Z,25.13
2022-10-18T01:35:34.044Z,24.30
2022-10-18T01:38:09.626Z,27.17
2022-10-18T01:40:42.455Z,22.87
2022-10-18T01:43:14.878Z,25.23
2022-10-18T01:45:45.523Z,26.35
2022-10-18T01:48:17.574Z,22.10
2022-10-18T01:50:47.969Z,21.40
2022-10-18T01:53:30.852Z,29.48
2022-10-18T01:56:18.906Z,27.65
2022-10-18T01:58:57.037Z,23.08
2022-10-18T02:01:42.100Z,21.17
2022-10-18T02:04:30.718Z,22.38
2022-10-18T02:07:23.058Z,25.90
2022-10-18T02:10:10.967Z,19.50
2022-10-18T02:12:44.735Z,22.38
2022-10-18T02:15:19.836Z,24.33
2022-10-18T02:17:50.770Z,24.25
2022-10-18T02:20:25.049Z,26.00
2022-10-18T02:22:58.678Z,23.02
2022-10-18T02:25:31.844Z,33.22
2022-10-18T02:28:03.658Z,24.17
2022-10-18T02:30:58.393Z,23.52
2022-10-18T02:33:44.424Z,23.00
2022-10-18T02:36:36.554Z,22.95
2022-10-18T02:39:18.063Z,20.48
2022-10-18T02:41:48.363Z,20.98
2022-10-18T02:44:18.569Z,23.02
2022-10-18T02:46:48.902Z,24.83
2022-10-18T02:49:19.058Z,25.20
2022-10-18T02:51:49.060Z,23.27
2022-10-18T02:54:19.281Z,22.35
2022-10-18T02:56:50.101Z,24.95
2022-10-18T02:59:21.879Z,23.85
2022-10-18T03:01:51.941Z,20.65
2022-10-18T03:04:22.227Z,27.45
2022-10-18T03:06:52.397Z,21.35
2022-10-18T03:09:22.561Z,27.30
2022-10-18T03:11:52.740Z,26.40
2022-10-18T03:14:22.876Z,23.23
2022-10-18T03:16:53.118Z,23.15
2022-10-18T03:19:23.458Z,23.65
2022-10-18T03:21:53.642Z,25.08
2022-10-18T03:24:23.834Z,27.48
2022-10-18T03:26:53.942Z,28.27
2022-10-18T03:29:24.012Z,28.23
2022-10-18T03:31:54.210Z,24.13
2022-10-18T03:34:24.266Z,27.17
2022-10-18T03:36:55.182Z,29.08
2022-10-18T03:39:25.331Z,23.63
2022-10-18T03:41:55.522Z,23.75
2022-10-18T03:44:25.700Z,25.88
2022-10-18T03:46:55.764Z,22.35
2022-10-18T03:49:26.018Z,19.52
2022-10-18T03:51:56.210Z,23.40
2022-10-18T03:54:28.833Z,22.67
2022-10-18T03:56:59.137Z,27.48
2022-10-18T03:59:29.264Z,24.35
2022-10-18T04:01:59.605Z,26.33
2022-10-18T04:04:29.929Z,29.60
2022-10-18T04:07:00.129Z,26.50
2022-10-18T04:09:30.313Z,27.33
2022-10-18T04:12:00.522Z,26.27
2022-10-18T04:14:30.658Z,23.45
2022-10-18T04:17:00.842Z,25.13
2022-10-18T04:19:31.009Z,28.23
2022-10-18T04:22:01.233Z,26.35
2022-10-18T04:24:31.385Z,25.67
2022-10-18T04:27:01.513Z,27.58
2022-10-18T04:29:31.716Z,27.08
2022-10-18T04:32:02.297Z,26.35
2022-10-18T04:34:32.479Z,28.95
2022-10-18T04:37:02.632Z,23.52
2022-10-18T04:39:32.722Z,34.72
2022-10-18T04:42:03.091Z,37.05
2022-10-18T04:44:33.356Z,34.78
2022-10-18T04:47:03.649Z,36.88
2022-10-18T04:49:33.827Z,36.30
2022-10-18T04:52:04.361Z,35.13
2022-10-18T04:54:37.316Z,28.40
2022-10-18T04:57:07.523Z,28.00
2022-10-18T04:59:37.697Z,30.25
2022-10-18T05:02:07.932Z,30.85
2022-10-18T05:04:38.679Z,31.75
2022-10-18T05:07:08.946Z,26.33
2022-10-18T05:09:39.150Z,25.70
2022-10-18T05:12:09.478Z,25.23
2022-10-18T05:14:39.847Z,24.08
2022-10-18T05:17:09.970Z,21.95
2022-10-18T05:19:40.230Z,27.52
2022-10-18T05:22:10.496Z,22.67
2022-10-18T05:24:40.623Z,26.05
2022-10-18T05:27:11.297Z,24.67
2022-10-18T05:29:41.572Z,23.65
2022-10-18T05:32:13.469Z,20.65
2022-10-18T05:34:43.842Z,25.77
2022-10-18T05:37:14.016Z,20.70
2022-10-18T05:39:44.098Z,18.23
2022-10-18T05:42:14.499Z,20.65
2022-10-18T05:44:44.598Z,19.65
2022-10-18T05:47:14.842Z,18.45
2022-10-18T05:49:44.998Z,19.88
2022-10-18T05:52:15.917Z,18.67
2022-10-18T05:54:46.045Z,21.58
2022-10-18T05:57:16.225Z,19.83
2022-10-18T05:59:46.499Z,21.05
2022-10-18T06:02:16.710Z,24.20
2022-10-18T06:04:46.990Z,20.55
2022-10-18T06:07:17.273Z,20.33
2022-10-18T06:09:47.437Z,24.23
2022-10-18T06:12:17.582Z,23.15
2022-10-18T06:14:49.551Z,19.48
2022-10-18T06:17:19.701Z,19.98
2022-10-18T06:19:50.094Z,22.60
2022-10-18T06:22:20.581Z,21.83
2022-10-18T06:24:55.065Z,19.83
2022-10-18T06:27:27.380Z,21.98
2022-10-18T06:29:58.132Z,21.05
2022-10-18T06:32:28.264Z,19.48
2022-10-18T06:34:58.434Z,18.05
2022-10-18T06:37:31.623Z,16.58
2022-10-18T06:40:01.925Z,16.13
2022-10-18T06:42:32.349Z,18.08
2022-10-18T06:45:03.470Z,15.02
2022-10-18T06:47:33.620Z,17.92
2022-10-18T06:50:03.957Z,18.58
2022-10-18T06:52:34.455Z,21.25
2022-10-18T06:55:08.969Z,17.48
2022-10-18T06:57:39.303Z,19.08
2022-10-18T07:00:09.892Z,18.08
2022-10-18T07:02:41.545Z,18.13
2022-10-18T07:05:11.763Z,16.83
2022-10-18T07:07:42.721Z,16.70
2022-10-18T07:10:13.256Z,19.65
2022-10-18T07:12:43.525Z,16.45
2022-10-18T07:15:13.782Z,19.00
2022-10-18T07:17:48.120Z,16.00
2022-10-18T07:20:18.244Z,15.63
2022-10-18T07:22:48.390Z,16.10
2022-10-18T07:25:18.681Z,17.42
2022-10-18T07:27:48.825Z,15.20
2022-10-18T07:30:19.026Z,19.77
2022-10-18T07:32:51.755Z,22.08
2022-10-18T07:35:21.834Z,20.42
2022-10-18T07:37:52.908Z,17.27
2022-10-18T07:40:23.028Z,19.65
2022-10-18T07:42:53.202Z,19.05
2022-10-18T07:45:23.300Z,18.98
2022-10-18T07:47:57.405Z,19.27
2022-10-18T07:50:28.070Z,19.60
2022-10-18T07:52:58.191Z,15.35
2022-10-18T07:55:28.395Z,14.63
2022-10-18T07:58:00.594Z,15.32
2022-10-18T08:00:30.743Z,16.92
2022-10-18T08:03:00.878Z,12.48
2022-10-18T08:08:08.114Z,11.88
2022-10-18T08:10:38.509Z,15.40
2022-10-18T08:13:08.617Z,18.25
2022-10-18T08:15:38.957Z,21.30
2022-10-18T08:18:09.332Z,19.88
2022-10-18T08:20:47.002Z,20.90
2022-10-18T08:23:17.178Z,18.40
2022-10-18T08:25:47.332Z,20.35
2022-10-18T08:28:19.493Z,20.73
2022-10-18T08:30:49.626Z,17.92
2022-10-18T08:33:20.271Z,15.10
2022-10-18T08:36:01.321Z,17.08
2022-10-18T08:38:32.528Z,12.13
2022-10-18T08:41:23.941Z,13.15
2022-10-18T08:44:18.994Z,14.55
2022-10-18T08:46:52.375Z,12.00
2022-10-18T08:49:44.214Z,13.40
2022-10-18T08:52:25.239Z,11.82
2022-10-18T08:55:20.550Z,12.60
2022-10-18T08:57:51.686Z,13.23
2022-10-18T09:00:24.711Z,14.00
2022-10-18T09:03:13.156Z,11.98
2022-10-18T09:05:56.102Z,13.30
2022-10-18T09:08:58.396Z,11.07
2022-10-18T09:11:49.874Z,12.02
2022-10-18T09:14:44.546Z,11.73
2022-10-18T09:17:43.614Z,15.77
2022-10-18T09:20:22.435Z,17.05
2022-10-18T09:22:57.521Z,11.32
2022-10-18T09:25:44.599Z,11.88
2022-10-18T09:28:23.842Z,9.90
2022-10-18T09:30:59.931Z,10.57
2022-10-18T09:33:41.935Z,10.88
2022-10-18T09:36:20.599Z,11.52
2022-10-18T09:39:02.489Z,12.48
2022-10-18T09:41:38.278Z,11.43
2022-10-18T09:44:33.662Z,9.77
2022-10-18T09:47:17.158Z,9.45
2022-10-18T09:49:56.310Z,7.25
2022-10-18T09:52:44.014Z,9.45
2022-10-18T09:55:22.852Z,10.45
2022-10-18T09:57:58.788Z,9.95
2022-10-18T10:00:35.305Z,11.18
2022-10-18T10:03:14.855Z,7.40
2022-10-18T10:05:45.895Z,6.88
2022-10-18T10:08:16.101Z,9.00
2022-10-18T10:10:48.299Z,9.70
2022-10-18T10:13:24.604Z,8.25
2022-10-18T10:16:00.977Z,9.00
2022-10-18T10:18:37.081Z,16.25
2022-10-18T10:21:14.887Z,11.40
2022-10-18T10:23:51.520Z,11.13
2022-10-18T10:26:29.123Z,12.60
2022-10-18T10:29:00.222Z,11.43
2022-10-18T10:31:32.016Z,8.55
2022-10-18T10:34:12.642Z,8.98
2022-10-18T10:36:54.266Z,9.40
2022-10-18T10:39:24.984Z,7.85
2022-10-18T10:41:58.825Z,7.97
2022-10-18T10:44:32.611Z,9.75
2022-10-18T10:47:03.841Z,6.95
2022-10-18T10:49:47.315Z,5.88
2022-10-18T10:52:27.425Z,14.52
2022-10-18T10:55:11.015Z,7.97
2022-10-18T10:57:50.181Z,6.85
2022-10-18T11:00:43.484Z,7.13
2022-10-18T11:03:30.957Z,10.38
2022-10-18T11:06:02.165Z,9.77
2022-10-18T11:08:39.897Z,7.10
2022-10-18T11:11:30.841Z,6.38
2022-10-18T11:14:29.667Z,9.32
2022-10-18T11:17:31.588Z,11.52
2022-10-18T11:20:09.751Z,9.85
2022-10-18T11:22:57.345Z,10.43
2022-10-18T11:26:06.360Z,7.47
2022-10-18T11:28:36.517Z,12.10
2022-10-18T11:31:22.804Z,7.95
2022-10-18T11:34:37.856Z,6.95
2022-10-18T11:37:38.554Z,9.98
2022-10-18T11:40:35.823Z,8.85
2022-10-18T11:43:57.083Z,7.80
2022-10-18T11:46:52.736Z,7.50
2022-10-18T11:49:47.412Z,6.95
2022-10-18T11:52:31.392Z,18.35
2022-10-18T11:55:30.398Z,12.25
2022-10-18T11:58:09.165Z,8.43
2022-10-18T12:00:55.156Z,7.25
2022-10-18T12:03:56.508Z,10.75
2022-10-18T12:06:32.854Z,6.70
2022-10-18T12:11:47.438Z,5.72
2022-10-18T12:14:27.319Z,6.35
2022-10-18T12:17:38.966Z,7.78
2022-10-18T12:19:56.592Z,6.85
2022-10-18T12:22:37.153Z,6.18
2022-10-18T12:25:13.891Z,5.32
2022-10-18T12:27:57.003Z,9.23
2022-10-18T12:31:05.936Z,7.68
2022-10-18T12:33:42.825Z,8.80
2022-10-18T12:36:13.069Z,5.32
2022-10-18T12:38:46.103Z,9.27
2022-10-18T12:41:26.485Z,8.55
2022-10-18T12:44:05.092Z,7.20
2022-10-18T12:46:46.134Z,6.40
2022-10-18T12:49:24.514Z,6.53
2022-10-18T12:52:01.045Z,9.13
2022-10-18T12:54:37.489Z,6.30
2022-10-18T12:59:52.183Z,8.13
2022-10-18T13:02:25.328Z,4.90
2022-10-18T13:07:32.446Z,8.75
2022-10-18T13:10:12.593Z,6.80
2022-10-18T13:12:48.813Z,8.70
2022-10-18T13:15:44.866Z,7.65
2022-10-18T13:18:31.457Z,9.18
2022-10-18T13:21:01.640Z,11.05
2022-10-18T13:24:00.048Z,7.80
2022-10-18T13:26:42.024Z,7.15
2022-10-18T13:29:36.743Z,9.88
2022-10-18T13:32:22.039Z,12.40
2022-10-18T13:34:52.266Z,9.30
2022-10-18T13:37:25.580Z,9.60
2022-10-18T13:40:25.546Z,6.57
2022-10-18T13:42:58.374Z,5.47
2022-10-18T13:45:31.662Z,6.65
2022-10-18T13:48:29.729Z,11.60
2022-10-18T13:51:34.869Z,6.50
2022-10-18T13:54:38.704Z,10.15
2022-10-18T13:57:19.444Z,6.32
2022-10-18T14:00:04.186Z,7.30
2022-10-18T14:03:00.226Z,8.68
2022-10-18T14:05:52.964Z,29.25
2022-10-18T14:08:40.533Z,22.17
2022-10-18T14:11:16.420Z,16.65
2022-10-18T14:13:52.096Z,10.63
2022-10-18T14:16:28.703Z,10.70
2022-10-18T14:19:09.289Z,10.85
2022-10-18T14:21:43.541Z,11.93
2022-10-18T14:24:20.695Z,11.10
2022-10-18T14:27:23.239Z,12.60
2022-10-18T14:30:19.556Z,12.23
2022-10-18T14:32:53.888Z,7.90
2022-10-18T14:35:32.529Z,5.07
2022-10-18T14:38:03.745Z,4.95
2022-10-18T14:40:39.622Z,6.53
2022-10-18T14:43:09.662Z,11.15
2022-10-18T14:45:41.462Z,5.75
2022-10-18T14:48:17.453Z,8.18
2022-10-18T14:50:59.327Z,7.78
2022-10-18T14:53:36.418Z,13.23
2022-10-18T14:56:08.419Z,18.30
2022-10-18T14:58:42.266Z,22.50
2022-10-18T15:01:24.652Z,18.15
2022-10-18T15:04:00.592Z,14.68
2022-10-18T15:06:33.268Z,9.23
2022-10-18T15:09:05.958Z,15.45
2022-10-18T15:11:36.307Z,11.90
2022-10-18T15:14:14.413Z,10.15
2022-10-18T15:16:45.527Z,7.97
2022-10-18T15:19:15.566Z,12.73
2022-10-18T15:22:31.232Z,22.05
2022-10-18T15:25:18.364Z,24.40
2022-10-18T15:27:52.497Z,13.55
2022-10-18T15:30:39.629Z,15.05
2022-10-18T15:33:22.322Z,12.43
2022-10-18T15:35:53.847Z,13.27
2022-10-18T15:38:32.087Z,13.15
2022-10-18T15:41:03.709Z,13.65
2022-10-18T15:43:35.318Z,15.65
2022-10-18T15:46:07.074Z,13.13
2022-10-18T15:48:40.371Z,15.73
2022-10-18T15:51:37.899Z,21.33
2022-10-18T15:54:18.202Z,12.95
2022-10-18T15:56:48.736Z,14.05
2022-10-18T15:59:31.104Z,13.25
2022-10-18T16:02:01.908Z,15.68
2022-10-18T16:04:33.256Z,12.98
2022-10-18T16:07:03.436Z,10.68
2022-10-18T16:09:33.949Z,14.57
2022-10-18T16:12:04.914Z,15.65
2022-10-18T16:14:36.291Z,21.35
2022-10-18T16:17:08.158Z,17.60
2022-10-18T16:19:38.276Z,19.27
2022-10-18T16:24:48.293Z,17.38
2022-10-18T16:27:19.343Z,21.33
2022-10-18T16:29:49.556Z,20.88
2022-10-18T16:32:19.749Z,26.67
2022-10-18T16:34:49.825Z,31.95
2022-10-18T16:37:19.883Z,27.77
2022-10-18T16:39:50.014Z,37.53
2022-10-18T16:42:20.242Z,30.17
2022-10-18T16:44:50.406Z,35.25
2022-10-18T16:47:21.292Z,31.95
2022-10-18T16:49:51.363Z,35.75
2022-10-18T16:52:21.468Z,33.70
2022-10-18T16:54:51.597Z,30.27
2022-10-18T16:57:21.797Z,21.65
2022-10-18T16:59:52.011Z,21.92
2022-10-18T17:02:22.143Z,22.92
2022-10-18T17:04:52.327Z,25.83
2022-10-18T17:07:25.076Z,33.50
2022-10-18T17:09:55.205Z,19.73
2022-10-18T17:12:25.322Z,18.52
2022-10-18T17:14:55.471Z,16.92
2022-10-18T17:17:25.613Z,15.77
2022-10-18T17:19:56.196Z,18.00
2022-10-18T17:22:27.544Z,19.52
2022-10-18T17:24:57.890Z,18.90
2022-10-18T17:27:28.336Z,20.30
2022-10-18T17:29:58.550Z,16.77
2022-10-18T17:32:29.447Z,25.73
2022-10-18T17:34:59.671Z,22.58
2022-10-18T17:37:29.831Z,18.40
2022-10-18T17:40:00.186Z,20.58
2022-10-18T17:42:30.459Z,16.35
2022-10-18T17:45:01.383Z,13.50
2022-10-18T17:47:31.983Z,13.82
2022-10-18T17:50:02.306Z,10.77
2022-10-18T17:52:32.577Z,20.77
2022-10-18T17:55:02.820Z,13.15
2022-10-18T17:57:33.276Z,11.48
2022-10-18T18:00:11.981Z,10.70
2022-10-18T18:02:42.740Z,10.25
2022-10-18T18:05:13.633Z,11.80
2022-10-18T18:07:44.326Z,10.80
2022-10-18T18:10:19.996Z,8.50
2022-10-18T18:12:50.359Z,9.43
2022-10-18T18:15:20.541Z,12.23
2022-10-18T18:17:57.251Z,7.53
2022-10-18T18:20:28.045Z,7.38
2022-10-18T18:22:58.254Z,8.50
2022-10-18T18:25:28.407Z,7.45
2022-10-18T18:27:59.915Z,8.50
2022-10-18T18:30:31.592Z,9.07
2022-10-18T18:33:01.838Z,9.55
2022-10-18T18:35:32.071Z,6.93
2022-10-18T18:38:05.169Z,6.47
2022-10-18T18:40:35.559Z,7.18
2022-10-18T18:43:12.565Z,9.20
2022-10-18T18:45:52.527Z,9.57
2022-10-18T18:48:22.764Z,7.97
2022-10-18T18:50:53.082Z,11.10
2022-10-18T18:53:27.222Z,7.05
2022-10-18T18:56:05.899Z,10.32
2022-10-18T18:58:38.203Z,10.48
2022-10-18T19:01:14.986Z,12.35
2022-10-18T19:03:47.531Z,8.15
2022-10-18T19:06:22.571Z,9.23
2022-10-18T19:08:54.907Z,9.27
2022-10-18T19:11:24.995Z,8.50
2022-10-18T19:13:55.303Z,10.13
2022-10-18T19:16:35.260Z,9.68
2022-10-18T19:19:12.679Z,12.02
2022-10-18T19:22:00.865Z,13.00
2022-10-18T19:24:32.241Z,39.42
2022-10-18T19:27:12.703Z,34.85
2022-10-18T19:29:44.024Z,42.67
2022-10-18T19:32:17.075Z,33.17
2022-10-18T19:34:47.349Z,17.83
2022-10-18T19:37:17.577Z,24.77
2022-10-18T19:39:47.790Z,23.48
2022-10-18T19:42:21.112Z,41.10
2022-10-18T19:44:56.796Z,51.00
2022-10-18T19:47:26.947Z,22.05
2022-10-18T19:49:57.282Z,15.70
2022-10-18T19:52:28.566Z,25.67
2022-10-18T19:54:58.852Z,16.30
2022-10-18T19:57:29.387Z,12.32
2022-10-18T20:00:00.731Z,13.43
2022-10-18T20:02:31.682Z,21.52
2022-10-18T20:05:03.910Z,21.77
2022-10-18T20:07:34.520Z,21.77
2022-10-18T20:10:04.918Z,20.92
2022-10-18T20:12:36.689Z,18.58
2022-10-18T20:15:08.977Z,31.52
2022-10-18T20:17:39.787Z,25.58
2022-10-18T20:20:10.605Z,26.48
2022-10-18T20:22:40.981Z,55.40
2022-10-18T20:25:11.168Z,24.77
2022-10-18T20:27:41.459Z,37.70
2022-10-18T20:30:15.743Z,26.70
2022-10-18T20:32:45.914Z,22.17
2022-10-18T20:35:16.485Z,24.75
2022-10-18T20:37:47.162Z,21.92
2022-10-18T20:40:17.437Z,20.73
2022-10-18T20:42:47.563Z,16.02
2022-10-18T20:45:17.679Z,22.20
2022-10-18T20:47:47.951Z,11.50
2022-10-18T20:50:18.171Z,13.70
2022-10-18T20:52:51.374Z,9.60
2022-10-18T20:55:21.535Z,12.27
2022-10-18T20:57:51.762Z,12.57
2022-10-18T21:00:21.851Z,16.08
2022-10-18T21:02:52.024Z,8.90
2022-10-18T21:05:22.060Z,11.95
2022-10-18T21:07:52.367Z,9.10
2022-10-18T21:10:24.534Z,7.50
2022-10-18T21:12:54.646Z,8.18
2022-10-18T21:15:24.832Z,10.75
2022-10-18T21:17:55.074Z,6.05
2022-10-18T21:20:25.590Z,9.18
2022-10-18T21:22:57.505Z,7.03
2022-10-18T21:25:27.775Z,12.00
2022-10-18T21:27:57.917Z,9.80
2022-10-18T21:30:28.128Z,6.32
2022-10-18T21:32:58.717Z,8.38
2022-10-18T21:35:29.011Z,7.18
2022-10-18T21:37:59.163Z,7.68
2022-10-18T21:40:29.322Z,8.70
2022-10-18T21:42:59.454Z,6.63
2022-10-18T21:45:29.571Z,9.32
2022-10-18T21:47:59.686Z,5.78
2022-10-18T21:50:29.819Z,10.38
2022-10-18T21:53:00.592Z,9.48
2022-10-18T21:55:30.743Z,9.93
2022-10-18T21:58:00.825Z,6.82
2022-10-18T22:00:31.163Z,8.77
2022-10-18T22:03:08.105Z,10.88
2022-10-18T22:05:38.497Z,8.10
2022-10-18T22:08:08.629Z,8.15
2022-10-18T22:10:38.824Z,11.27
2022-10-18T22:13:08.959Z,6.07
2022-10-18T22:15:39.153Z,8.73
2022-10-18T22:18:09.357Z,8.40
2022-10-18T22:20:39.566Z,6.93
2022-10-18T22:23:12.656Z,5.50
2022-10-18T22:25:43.374Z,7.65
2022-10-18T22:28:13.661Z,9.70
2022-10-18T22:30:44.184Z,7.40
2022-10-18T22:33:14.300Z,7.68
2022-10-18T22:35:49.378Z,7.60
2022-10-18T22:38:19.514Z,11.43
2022-10-18T22:40:49.617Z,10.02
2022-10-18T22:43:19.714Z,10.63
2022-10-18T22:45:49.817Z,8.57
2022-10-18T22:48:20.055Z,7.43
2022-10-18T22:50:50.184Z,7.30
2022-10-18T22:53:20.536Z,12.38
2022-10-18T22:55:51.554Z,10.43
2022-10-18T22:58:21.696Z,6.30
2022-10-18T23:00:51.763Z,8.25
2022-10-18T23:03:21.975Z,7.60
2022-10-18T23:05:52.155Z,13.75
2022-10-18T23:08:22.630Z,9.65
2022-10-18T23:10:55.648Z,5.63
2022-10-18T23:13:27.215Z,14.15
2022-10-18T23:16:04.861Z,8.98
2022-10-18T23:18:35.611Z,8.93
2022-10-18T23:21:11.775Z,7.28
2022-10-18T23:23:42.854Z,10.27
2022-10-18T23:26:19.209Z,13.68
2022-10-18T23:28:51.246Z,9.70
2022-10-18T23:31:27.539Z,7.20
2022-10-18T23:34:04.118Z,12.38
2022-10-18T23:36:34.822Z,9.05
2022-10-18T23:39:06.334Z,20.67
2022-10-18T23:41:36.532Z,10.60
2022-10-18T23:44:09.117Z,7.97
2022-10-18T23:46:39.271Z,10.52
2022-10-18T23:49:09.395Z,12.63
2022-10-18T23:51:39.633Z,10.20
2022-10-18T23:54:09.788Z,10.93
2022-10-18T23:56:39.860Z,27.52
2022-10-18T23:59:09.993Z,18.20
